Saint Paul, Minnesota
Current Conditions -  °F | °C
As of 1:17 AM on Saturday 20 Dec 2014 (Local Time) from KSTP Reporting Station
Overcast Overcast  
Wind Chill: -6°   Ceiling: 1400
Heat Index: -2°   Visibility: 7mi
Dew Point: -4°   Wind: 8mph
Humidity: 85%   Direction: 160°SSE
Pressure: 30.18"   Gusts: NA
Location:  44.93°N, 93.07°W
Report Text: KSTP 200717Z AUTO 16007KT 7SM BKN014 OVC033 M02/M04 A3018 RMK AO2 T10171039
Loading
Personal Weather Stations






























Interactive Weather Map New forecast layout! Learn more

10-Day Weather Forecast

Advertisements
Track Severe Weather on mobile